Los Fresnos, Texas
Current Conditions -  °F | °C
As of 1:53 PM on Saturday 20 Dec 2014 (Local Time) from KPIL Reporting Station
Haze Haze  
Wind Chill: 58°   Ceiling: 800
Heat Index: 58°   Visibility: 6mi
Dew Point: 53°   Wind: 16mph
Humidity: 84%   Direction: 330°NNW
Pressure: 30.13"   Gusts: NA
Location:  26.07°N, 97.48°W
Report Text: KPIL 201953Z AUTO 33014KT 6SM HZ OVC008 14/12 A3013 RMK AO2 SLP201 T01440117
Loading
Personal Weather Stations






























Interactive Weather Map New forecast layout! Learn more

10-Day Weather Forecast

Advertisements
Track Severe Weather on mobile